createdAt,value
2022-12-17T00:01:41.340Z,101708.88
2022-12-17T00:04:26.992Z,101717.03
2022-12-17T00:07:12.341Z,101715.34
2022-12-17T00:09:57.794Z,101711.78
2022-12-17T00:12:43.500Z,101706.53
2022-12-17T00:15:29.413Z,101721.63
2022-12-17T00:18:17.540Z,101713.47
2022-12-17T00:21:03.021Z,101679.72
2022-12-17T00:23:48.638Z,101724.34
2022-12-17T00:26:34.243Z,101718.22
2022-12-17T00:29:31.056Z,101726.22
2022-12-17T00:32:17.847Z,101727.22
2022-12-17T00:35:03.158Z,101733.34
2022-12-17T00:37:48.561Z,101731.63
2022-12-17T00:40:33.935Z,101730.78
2022-12-17T00:43:20.454Z,101728.94
2022-12-17T00:46:05.752Z,101728.94
2022-12-17T00:48:52.603Z,101737.06
2022-12-17T00:51:37.805Z,101721.72
2022-12-17T00:54:23.171Z,101737.91
2022-12-17T00:57:08.237Z,101711.63
2022-12-17T00:59:53.545Z,101734.34
2022-12-17T01:02:39.236Z,101729.28
2022-12-17T01:05:35.190Z,101743.53
2022-12-17T01:08:26.174Z,101736.69
2022-12-17T01:11:11.442Z,101737.22
2022-12-17T01:13:59.428Z,101749.16
2022-12-17T01:16:44.855Z,101752.53
2022-12-17T01:19:30.206Z,101715.66
2022-12-17T01:22:17.324Z,101687.06
2022-12-17T01:24:59.003Z,101753.50
2022-12-17T01:27:44.323Z,101756.09
2022-12-17T01:30:30.092Z,101759.81
2022-12-17T01:33:20.175Z,101762.53
2022-12-17T01:36:05.606Z,101756.44
2022-12-17T01:38:52.529Z,101757.13
2022-12-17T01:41:37.689Z,101757.13
2022-12-17T01:45:08.894Z,101767.09
2022-12-17T01:47:56.534Z,101771.72
2022-12-17T01:50:42.806Z,101771.72
2022-12-17T01:53:28.511Z,101767.31
2022-12-17T01:56:15.008Z,101782.56
2022-12-17T01:59:00.262Z,101772.75
2022-12-17T02:01:45.771Z,101783.41
2022-12-17T02:04:31.167Z,101788.00
2022-12-17T02:07:27.871Z,101777.91
2022-12-17T02:10:16.663Z,101785.47
2022-12-17T02:13:04.083Z,101787.16
2022-12-17T02:15:50.913Z,101793.44
2022-12-17T02:18:33.967Z,101741.69
2022-12-17T02:21:19.289Z,101794.25
2022-12-17T02:24:07.851Z,101794.25
2022-12-17T02:26:55.935Z,101756.22
2022-12-17T02:29:42.383Z,101798.03
2022-12-17T02:32:27.931Z,101797.19
2022-12-17T02:35:13.005Z,101799.69
2022-12-17T02:38:03.949Z,101804.31
2022-12-17T02:40:49.276Z,101755.19
2022-12-17T02:43:36.632Z,101806.19
2022-12-17T02:46:22.633Z,101817.03
2022-12-17T02:49:08.266Z,101812.44
2022-12-17T02:51:54.047Z,101795.41
2022-12-17T02:54:39.733Z,101808.88
2022-12-17T02:57:24.830Z,101813.47
2022-12-17T03:00:11.827Z,101811.59
2022-12-17T03:02:57.400Z,101815.34
2022-12-17T03:05:45.386Z,101809.91
2022-12-17T03:08:31.225Z,101808.88
2022-12-17T03:11:16.563Z,101821.63
2022-12-17T03:14:02.134Z,101823.31
2022-12-17T03:16:49.023Z,101804.50
2022-12-17T03:19:34.180Z,101819.75
2022-12-17T03:22:19.805Z,101824.13
2022-12-17T03:25:04.866Z,101817.88
2022-12-17T03:27:50.239Z,101797.38
2022-12-17T03:30:39.073Z,101827.72
2022-12-17T03:33:34.349Z,101827.06
2022-12-17T03:36:20.034Z,101834.19
2022-12-17T03:39:05.257Z,101828.75
2022-12-17T03:41:50.680Z,101828.75
2022-12-17T03:44:35.953Z,101835.00
2022-12-17T03:47:21.038Z,101810.41
2022-12-17T03:50:07.837Z,101845.84
2022-12-17T03:52:49.901Z,101764.66
2022-12-17T03:55:35.260Z,101834.38
2022-12-17T03:58:20.524Z,101755.66
2022-12-17T04:01:05.718Z,101832.28
2022-12-17T04:03:51.026Z,101829.56
2022-12-17T04:06:37.669Z,101831.28
2022-12-17T04:09:23.072Z,101829.56
2022-12-17T04:12:08.341Z,101833.16
2022-12-17T04:14:53.780Z,101828.75
2022-12-17T04:17:39.015Z,101836.91
2022-12-17T04:20:30.621Z,101843.34
2022-12-17T04:23:17.457Z,101845.03
2022-12-17T04:26:02.845Z,101855.91
2022-12-17T04:28:48.306Z,101846.91
2022-12-17T04:31:33.821Z,101855.91
2022-12-17T04:34:19.312Z,101846.81
2022-12-17T04:37:04.481Z,101868.63
2022-12-17T04:39:51.107Z,101865.09
2022-12-17T04:42:37.699Z,101860.00
2022-12-17T04:45:23.648Z,101869.66
2022-12-17T04:48:08.589Z,101877.16
2022-12-17T04:50:53.841Z,101882.41
2022-12-17T04:53:39.704Z,101885.97
2022-12-17T04:56:26.399Z,101880.53
2022-12-17T04:59:11.729Z,101889.53
2022-12-17T05:01:57.228Z,101889.53
2022-12-17T05:04:42.742Z,101891.41
2022-12-17T05:07:28.010Z,101827.72
2022-12-17T05:10:13.333Z,101904.97
2022-12-17T05:13:00.590Z,101893.94
2022-12-17T05:15:49.741Z,101900.38
2022-12-17T05:18:38.309Z,101897.66
2022-12-17T05:21:23.711Z,101895.97
2022-12-17T05:24:09.658Z,101917.53
2022-12-17T05:26:54.698Z,101916.69
2022-12-17T05:29:43.966Z,101914.81
2022-12-17T05:32:30.806Z,101913.13
2022-12-17T05:35:15.774Z,101916.69
2022-12-17T05:38:01.120Z,101914.81
2022-12-17T05:40:46.489Z,101914.81
2022-12-17T05:43:32.056Z,101912.09
2022-12-17T05:46:18.971Z,101913.97
2022-12-17T05:49:04.076Z,101912.09
2022-12-17T05:51:49.455Z,101920.25
2022-12-17T05:54:35.141Z,101907.41
2022-12-17T05:57:20.466Z,101919.41
2022-12-17T06:00:07.832Z,101929.22
2022-12-17T06:02:55.008Z,101934.66
2022-12-17T06:05:40.439Z,101935.47
2022-12-17T06:08:26.378Z,101938.19
2022-12-17T06:11:11.720Z,101940.91
2022-12-17T06:13:57.227Z,101949.94
2022-12-17T06:16:42.342Z,101944.50
2022-12-17T06:19:29.291Z,101953.50
2022-12-17T06:22:15.060Z,101956.22
2022-12-17T06:25:00.365Z,101954.50
2022-12-17T06:27:45.798Z,101953.69
2022-12-17T06:30:31.253Z,101948.25
2022-12-17T06:33:22.912Z,101952.66
2022-12-17T06:36:10.790Z,101958.25
2022-12-17T06:38:56.243Z,101966.22
2022-12-17T06:41:41.629Z,101975.22
2022-12-17T06:44:27.310Z,101966.22
2022-12-17T06:47:24.081Z,101968.06
2022-12-17T06:50:09.430Z,101968.06
2022-12-17T06:52:56.772Z,101969.97
2022-12-17T06:55:41.892Z,101917.41
2022-12-17T06:58:27.328Z,101973.50
2022-12-17T07:01:12.740Z,101978.94
2022-12-17T07:03:58.153Z,101983.38
2022-12-17T07:06:43.332Z,101981.66
2022-12-17T07:09:44.628Z,101979.81
2022-12-17T07:12:30.239Z,101987.09
2022-12-17T07:15:15.521Z,101989.81
2022-12-17T07:18:01.017Z,101997.13
2022-12-17T07:20:46.413Z,101994.66
2022-12-17T07:23:32.088Z,102014.47
2022-12-17T07:26:19.110Z,102021.56
2022-12-17T07:29:04.406Z,102020.72
2022-12-17T07:31:49.797Z,102039.75
2022-12-17T07:34:35.247Z,102036.19
2022-12-17T07:37:20.836Z,102039.75
2022-12-17T07:40:06.303Z,102048.75
2022-12-17T07:42:53.563Z,102010.38
2022-12-17T07:45:39.037Z,102051.63
2022-12-17T07:48:24.736Z,102049.75
2022-12-17T07:51:10.068Z,102057.91
2022-12-17T07:53:55.787Z,102050.78
2022-12-17T07:56:41.410Z,102062.31
2022-12-17T07:59:28.250Z,102069.63
2022-12-17T08:02:14.182Z,102069.78
2022-12-17T08:04:59.669Z,102076.91
2022-12-17T08:07:45.085Z,102050.19
2022-12-17T08:10:30.333Z,102077.78
2022-12-17T08:13:15.954Z,102081.50
2022-12-17T08:16:02.758Z,102075.22
2022-12-17T08:18:48.060Z,102082.34
2022-12-17T08:21:33.386Z,102062.81
2022-12-17T08:24:18.876Z,102093.22
2022-12-17T08:27:04.111Z,102090.50
2022-12-17T08:29:49.477Z,102012.16
2022-12-17T08:32:36.434Z,102095.09
2022-12-17T08:35:21.649Z,102101.38
2022-12-17T08:38:06.982Z,102101.38
2022-12-17T08:40:52.224Z,102057.81
2022-12-17T08:43:37.923Z,102115.78
2022-12-17T08:46:23.740Z,102115.97
2022-12-17T08:49:10.403Z,102111.38
2022-12-17T08:51:55.771Z,102105.09
2022-12-17T08:54:41.434Z,102082.97
2022-12-17T08:57:31.828Z,102106.97
2022-12-17T09:00:17.626Z,102109.69
2022-12-17T09:03:03.362Z,102106.13
2022-12-17T09:05:50.248Z,102109.69
2022-12-17T09:08:35.578Z,102113.25
2022-12-17T09:11:20.848Z,102117.84
2022-12-17T09:14:06.498Z,102108.66
2022-12-17T09:16:51.977Z,102105.09
2022-12-17T09:19:37.102Z,102106.97
2022-12-17T09:22:24.367Z,102117.66
2022-12-17T09:25:09.446Z,102083.22
2022-12-17T09:27:54.867Z,102112.09
2022-12-17T09:30:40.213Z,102129.19
2022-12-17T09:33:25.950Z,102128.19
2022-12-17T09:36:11.671Z,102127.16
2022-12-17T09:38:58.318Z,102128.69
2022-12-17T09:41:45.186Z,102107.91
2022-12-17T09:44:36.469Z,102135.59
2022-12-17T09:47:26.939Z,102119.69
2022-12-17T09:50:12.630Z,102140.66
2022-12-17T09:53:01.060Z,102141.34
2022-12-17T09:55:50.775Z,102111.22
2022-12-17T09:58:37.781Z,102133.00
2022-12-17T10:01:23.652Z,102136.38
2022-12-17T10:04:08.951Z,102142.47
2022-12-17T10:06:54.705Z,102115.28
2022-12-17T10:09:39.905Z,102118.94
2022-12-17T10:12:32.687Z,102076.22
2022-12-17T10:15:32.803Z,102136.88
2022-12-17T10:18:18.481Z,102145.19
2022-12-17T10:21:06.231Z,102127.16
2022-12-17T10:23:52.255Z,102124.63
2022-12-17T10:26:38.058Z,102156.72
2022-12-17T10:29:27.979Z,102163.19
2022-12-17T10:32:13.744Z,102156.06
2022-12-17T10:35:04.940Z,102159.63
2022-12-17T10:37:52.764Z,102157.75
2022-12-17T10:40:42.022Z,102119.88
2022-12-17T10:43:44.059Z,102159.50
2022-12-17T10:46:31.050Z,102177.63
2022-12-17T10:49:23.709Z,102141.91
2022-12-17T10:52:09.095Z,102162.34
2022-12-17T10:54:54.803Z,102163.19
2022-12-17T10:58:00.724Z,102165.06
2022-12-17T11:00:50.313Z,102177.78
2022-12-17T11:03:46.683Z,102165.31
2022-12-17T11:06:37.422Z,102147.72
2022-12-17T11:09:23.255Z,102176.47
2022-12-17T11:12:08.619Z,102177.31
2022-12-17T11:14:58.628Z,102181.91
2022-12-17T11:17:43.988Z,102182.75
2022-12-17T11:20:39.159Z,102166.03
2022-12-17T11:23:24.661Z,102180.88
2022-12-17T11:26:13.037Z,102175.97
2022-12-17T11:28:58.440Z,102184.25
2022-12-17T11:31:57.887Z,102185.09
2022-12-17T11:34:48.244Z,102181.72
2022-12-17T11:37:33.305Z,102188.19
2022-12-17T11:40:20.500Z,102185.66
2022-12-17T11:43:08.613Z,102172.50
2022-12-17T11:45:55.909Z,102178.91
2022-12-17T11:48:44.273Z,102133.41
2022-12-17T11:51:31.710Z,102176.72
2022-12-17T11:54:20.845Z,102143.53
2022-12-17T11:57:08.096Z,102166.22
2022-12-17T11:59:58.164Z,102145.06
2022-12-17T12:03:01.063Z,102167.91
2022-12-17T12:05:56.427Z,102168.91
2022-12-17T12:08:43.137Z,102170.78
2022-12-17T12:11:47.820Z,102135.28
2022-12-17T12:14:41.226Z,102141.75
2022-12-17T12:17:36.865Z,102117.22
2022-12-17T12:20:24.575Z,102164.00
2022-12-17T12:23:13.188Z,102161.28
2022-12-17T12:26:00.988Z,102172.84
2022-12-17T12:28:49.912Z,102153.22
2022-12-17T12:31:40.820Z,102166.56
2022-12-17T12:34:28.192Z,102056.91
2022-12-17T12:37:13.648Z,102157.38
2022-12-17T12:40:00.549Z,102161.97
2022-12-17T12:42:48.523Z,102150.94
2022-12-17T12:45:49.575Z,102142.16
2022-12-17T12:48:43.291Z,102161.63
2022-12-17T12:51:34.236Z,102149.72
2022-12-17T12:54:21.123Z,102137.88
2022-12-17T12:57:06.367Z,102149.19
2022-12-17T12:59:52.831Z,102146.28
2022-12-17T13:02:45.689Z,102147.78
2022-12-17T13:05:33.786Z,102133.28
2022-12-17T13:08:20.698Z,102110.13
2022-12-17T13:10:48.690Z,102146.78
2022-12-17T13:13:25.896Z,102114.44
2022-12-17T13:15:55.472Z,102131.31
2022-12-17T13:18:28.487Z,102101.72
2022-12-17T13:21:03.437Z,102133.19
2022-12-17T13:23:33.637Z,102119.00
2022-12-17T13:26:23.480Z,102120.53
2022-12-17T13:29:03.264Z,102141.16
2022-12-17T13:31:32.274Z,102129.63
2022-12-17T13:34:07.117Z,102091.41
2022-12-17T13:36:38.804Z,102121.84
2022-12-17T13:39:20.464Z,102122.03
2022-12-17T13:41:54.558Z,102082.59
2022-12-17T13:44:24.059Z,102130.84
2022-12-17T13:46:52.741Z,102111.88
2022-12-17T13:49:23.006Z,102114.03
2022-12-17T13:52:03.284Z,102119.13
2022-12-17T13:54:34.568Z,102121.84
2022-12-17T13:57:09.626Z,102115.75
2022-12-17T13:59:37.608Z,102078.25
2022-12-17T14:02:06.773Z,102110.47
2022-12-17T14:04:36.217Z,102110.47
2022-12-17T14:07:05.295Z,102106.94
2022-12-17T14:09:34.965Z,102101.69
2022-12-17T14:12:20.776Z,102112.56
2022-12-17T14:14:49.494Z,102109.16
2022-12-17T14:17:20.807Z,102111.88
2022-12-17T14:19:50.223Z,102097.84
2022-12-17T14:22:20.225Z,102121.06
2022-12-17T14:24:48.392Z,102115.63
2022-12-17T14:27:23.304Z,102122.75
2022-12-17T14:29:51.164Z,102124.63
2022-12-17T14:32:31.407Z,102126.47
2022-12-17T14:35:01.219Z,102118.00
2022-12-17T14:37:29.533Z,102013.13
2022-12-17T14:39:59.890Z,102064.63
2022-12-17T14:42:29.460Z,102137.34
2022-12-17T14:44:59.362Z,102136.31
2022-12-17T14:47:28.253Z,102128.31
2022-12-17T14:49:58.626Z,102140.06
2022-12-17T14:52:34.656Z,102134.63
2022-12-17T14:55:02.839Z,102130.22
2022-12-17T14:57:30.731Z,102132.09
2022-12-17T14:59:58.602Z,102141.09
2022-12-17T15:02:27.728Z,102131.03
2022-12-17T15:04:58.254Z,102134.63
2022-12-17T15:07:26.889Z,102128.19
2022-12-17T15:09:56.371Z,102125.47
2022-12-17T15:12:24.877Z,102121.91
2022-12-17T15:14:53.040Z,102124.44
2022-12-17T15:17:20.942Z,102125.59
2022-12-17T15:19:54.248Z,102132.75
2022-12-17T15:22:24.041Z,102135.66
2022-12-17T15:24:51.934Z,102134.81
2022-12-17T15:27:21.200Z,102136.84
2022-12-17T15:29:49.048Z,102141.25
2022-12-17T15:32:19.246Z,102145.66
2022-12-17T15:34:47.382Z,102147.72
2022-12-17T15:37:15.291Z,102156.53
2022-12-17T15:39:43.222Z,102163.84
2022-12-17T15:42:28.012Z,102159.41
2022-12-17T15:44:57.373Z,102151.28
2022-12-17T15:47:25.238Z,102151.09
2022-12-17T15:49:53.133Z,102158.41
2022-12-17T15:52:21.354Z,102122.25
2022-12-17T15:54:49.281Z,102169.06
2022-12-17T15:57:18.882Z,102169.28
2022-12-17T15:59:46.985Z,102168.41
2022-12-17T16:02:16.381Z,102170.13
2022-12-17T16:04:44.654Z,102165.53
2022-12-17T16:07:13.007Z,102167.22
2022-12-17T16:09:40.890Z,102170.63
2022-12-17T16:12:08.894Z,102167.06
2022-12-17T16:14:36.808Z,102159.06
2022-12-17T16:17:04.679Z,102164.69
2022-12-17T16:19:33.949Z,102164.50
2022-12-17T16:22:01.991Z,102156.56
2022-12-17T16:24:30.209Z,102156.41
2022-12-17T16:27:04.055Z,102175.88
2022-12-17T16:29:32.495Z,102178.59
2022-12-17T16:32:00.549Z,102180.47
2022-12-17T16:34:28.997Z,102158.94
2022-12-17T16:36:58.261Z,102172.31
2022-12-17T16:39:26.135Z,102178.59
2022-12-17T16:41:53.977Z,102177.91
2022-12-17T16:44:21.833Z,102180.63
2022-12-17T16:46:50.257Z,102185.03
2022-12-17T16:49:19.692Z,102153.25
2022-12-17T16:51:48.268Z,102192.34
2022-12-17T16:54:19.268Z,102195.25
2022-12-17T16:56:47.327Z,102094.66
2022-12-17T16:59:15.744Z,102198.63
2022-12-17T17:01:44.905Z,102201.34
2022-12-17T17:04:13.167Z,102208.66
2022-12-17T17:06:41.594Z,102204.22
2022-12-17T17:09:09.605Z,102210.50
2022-12-17T17:11:38.882Z,102202.72
2022-12-17T17:14:06.901Z,102205.25
2022-12-17T17:16:35.238Z,102197.94
2022-12-17T17:19:03.829Z,102188.06
2022-12-17T17:21:33.332Z,102197.28
2022-12-17T17:24:01.895Z,102200.84
2022-12-17T17:26:30.366Z,102203.91
2022-12-17T17:28:59.857Z,102192.88
2022-12-17T17:32:01.242Z,102192.34
2022-12-17T17:34:16.053Z,102212.88
2022-12-17T17:36:44.220Z,102202.03
2022-12-17T17:39:12.098Z,102213.72
2022-12-17T17:41:40.091Z,102214.75
2022-12-17T17:44:11.211Z,102204.75
2022-12-17T17:46:39.380Z,102215.59
2022-12-17T17:49:08.009Z,102172.63
2022-12-17T17:52:07.735Z,102210.34
2022-12-17T17:54:25.091Z,102204.91
2022-12-17T17:56:53.228Z,102204.06
2022-12-17T17:59:30.968Z,102207.81
2022-12-17T18:02:01.287Z,102211.38
2022-12-17T18:04:29.868Z,102205.25
2022-12-17T18:09:45.684Z,102216.13
2022-12-17T18:12:31.253Z,102218.84
2022-12-17T18:15:18.862Z,102207.31
2022-12-17T18:17:47.422Z,102223.38
2022-12-17T18:20:15.357Z,102224.44
2022-12-17T18:22:43.381Z,102213.56
2022-12-17T18:25:11.744Z,102219.00
2022-12-17T18:27:39.827Z,102219.00
2022-12-17T18:30:12.631Z,102224.59
2022-12-17T18:32:40.819Z,102221.03
2022-12-17T18:35:10.177Z,102188.06
2022-12-17T18:37:44.453Z,102200.44
2022-12-17T18:40:14.827Z,102221.03
2022-12-17T18:43:03.341Z,102153.25
2022-12-17T18:45:45.329Z,102219.72
2022-12-17T18:48:13.569Z,102200.94
2022-12-17T18:50:41.425Z,102195.22
2022-12-17T18:53:09.597Z,102226.66
2022-12-17T18:55:40.506Z,102196.88
2022-12-17T18:58:09.150Z,102214.75
2022-12-17T19:00:39.840Z,102228.16
2022-12-17T19:03:10.101Z,102221.03
2022-12-17T19:05:45.181Z,102180.72
2022-12-17T19:08:14.473Z,102228.34
2022-12-17T19:10:42.705Z,102234.78
2022-12-17T19:13:10.945Z,102225.19
2022-12-17T19:15:40.230Z,102247.53
2022-12-17T19:18:08.081Z,102249.44
2022-12-17T19:20:35.978Z,102251.09
2022-12-17T19:23:03.917Z,102218.78
2022-12-17T19:25:32.273Z,102232.31
2022-12-17T19:28:00.206Z,102244.81
2022-12-17T19:30:28.165Z,102229.44
2022-12-17T19:32:57.482Z,102237.88
2022-12-17T19:35:25.787Z,102246.72
2022-12-17T19:37:53.725Z,102233.94
2022-12-17T19:40:21.654Z,102214.38
2022-12-17T19:42:49.525Z,102247.53
2022-12-17T19:45:17.582Z,102242.09
2022-12-17T19:47:45.451Z,102228.75
2022-12-17T19:50:14.821Z,102225.56
2022-12-17T19:52:42.736Z,102248.56
2022-12-17T19:55:11.156Z,102249.44
2022-12-17T19:57:39.253Z,102213.06
2022-12-17T20:00:10.847Z,102247.53
2022-12-17T20:02:39.085Z,102251.75
2022-12-17T20:05:08.217Z,102256.34
2022-12-17T20:07:37.514Z,102259.06
2022-12-17T20:10:06.043Z,102252.63
2022-12-17T20:12:33.987Z,102262.47
2022-12-17T20:15:02.348Z,102272.28
2022-12-17T20:17:30.540Z,102275.88
2022-12-17T20:19:58.554Z,102274.19
2022-12-17T20:22:26.564Z,102280.44
2022-12-17T20:24:56.241Z,102265.03
2022-12-17T20:27:24.114Z,102286.91
2022-12-17T20:29:52.177Z,102282.50
2022-12-17T20:32:21.319Z,102289.63
2022-12-17T20:34:49.698Z,102282.34
2022-12-17T20:37:17.666Z,102301.50
2022-12-17T20:39:45.555Z,102287.06
2022-12-17T20:42:14.869Z,102300.66
2022-12-17T20:44:42.871Z,102297.94
2022-12-17T20:47:10.733Z,102274.91
2022-12-17T20:49:38.605Z,102289.78
2022-12-17T20:52:06.533Z,102295.22
2022-12-17T20:54:35.708Z,102294.38
2022-12-17T20:57:03.565Z,102297.09
2022-12-17T20:59:32.853Z,102298.09
2022-12-17T21:02:00.870Z,102312.53
2022-12-17T21:04:29.282Z,102301.53
2022-12-17T21:06:57.145Z,102309.81
2022-12-17T21:09:25.553Z,102298.34
2022-12-17T21:11:53.608Z,102299.97
2022-12-17T21:14:21.506Z,102297.25
2022-12-17T21:16:51.113Z,102298.09
2022-12-17T21:19:22.056Z,102296.41
2022-12-17T21:21:50.118Z,102299.13
2022-12-17T21:24:18.010Z,102306.25
2022-12-17T21:26:47.064Z,102310.84
2022-12-17T21:29:15.537Z,102299.13
2022-12-17T21:31:44.775Z,102307.28
2022-12-17T21:34:15.233Z,102294.91
2022-12-17T21:36:43.245Z,102292.38
2022-12-17T21:39:11.212Z,102295.09
2022-12-17T21:41:42.555Z,102283.25
2022-12-17T21:44:13.356Z,102299.50
2022-12-17T21:46:42.867Z,102299.50
2022-12-17T21:49:12.889Z,102294.06
2022-12-17T21:51:41.014Z,102289.31
2022-12-17T21:54:11.401Z,102292.03
2022-12-17T21:56:41.193Z,102299.31
2022-12-17T21:59:09.067Z,102307.47
2022-12-17T22:01:37.095Z,102311.03
2022-12-17T22:04:05.420Z,102308.50
2022-12-17T22:06:43.711Z,102300.88
2022-12-17T22:09:30.512Z,102309.34
2022-12-17T22:12:32.991Z,102310.19
2022-12-17T22:15:00.878Z,102307.66
2022-12-17T22:17:29.569Z,102287.69
2022-12-17T22:19:57.469Z,102313.25
2022-12-17T22:22:26.782Z,102327.50
2022-12-17T22:24:55.097Z,102320.38
2022-12-17T22:27:23.119Z,102323.09
2022-12-17T22:30:09.516Z,102309.50
2022-12-17T22:32:54.748Z,102305.09
2022-12-17T22:36:57.795Z,102309.50
2022-12-17T22:42:41.407Z,102312.41
2022-12-17T22:44:32.403Z,102311.56
2022-12-17T22:44:45.171Z,102312.06
2022-12-17T22:46:41.332Z,102220.34
2022-12-17T22:49:09.269Z,102330.59
2022-12-17T22:51:37.241Z,102306.00
2022-12-17T22:54:11.514Z,102315.66
2022-12-17T22:57:15.340Z,102325.81
2022-12-17T22:59:28.696Z,102330.38
2022-12-17T23:01:56.617Z,102316.19
2022-12-17T23:04:24.575Z,102324.31
2022-12-17T23:06:52.541Z,102341.44
2022-12-17T23:09:22.066Z,102344.16
2022-12-17T23:11:49.973Z,102344.16
2022-12-17T23:14:18.093Z,102336.84
2022-12-17T23:16:46.154Z,102341.44
2022-12-17T23:19:14.153Z,102297.44
2022-12-17T23:21:42.172Z,102304.00
2022-12-17T23:24:10.428Z,102342.25
2022-12-17T23:26:40.680Z,102328.88
2022-12-17T23:29:09.502Z,102291.28
2022-12-17T23:31:40.224Z,102336.19
2022-12-17T23:34:08.465Z,102339.75
2022-12-17T23:36:36.676Z,102344.34
2022-12-17T23:39:04.860Z,102335.34
2022-12-17T23:41:32.936Z,102331.78
2022-12-17T23:44:02.267Z,102333.63
2022-12-17T23:46:30.692Z,102323.63
2022-12-17T23:48:58.682Z,102330.06
2022-12-17T23:51:26.733Z,102315.69
2022-12-17T23:53:54.615Z,102324.81
2022-12-17T23:56:23.506Z,102319.22
2022-12-17T23:58:53.155Z,102313.63
